createdAt,value
2023-01-15T00:01:42.952Z,159.00
2023-01-15T00:04:12.612Z,152.10
2023-01-15T00:06:41.653Z,128.00
2023-01-15T00:09:09.766Z,137.87
2023-01-15T00:11:37.170Z,154.90
2023-01-15T00:14:04.640Z,129.77
2023-01-15T00:16:32.069Z,138.50
2023-01-15T00:19:01.660Z,136.33
2023-01-15T00:21:29.807Z,140.60
2023-01-15T00:24:14.975Z,128.37
2023-01-15T00:26:59.849Z,143.40
2023-01-15T00:29:27.289Z,137.50
2023-01-15T00:31:56.607Z,137.57
2023-01-15T00:34:25.758Z,131.17
2023-01-15T00:36:53.283Z,142.07
2023-01-15T00:39:21.102Z,140.10
2023-01-15T00:41:48.883Z,143.07
2023-01-15T00:44:16.337Z,139.60
2023-01-15T00:46:43.779Z,116.63
2023-01-15T00:49:11.296Z,151.57
2023-01-15T00:51:40.029Z,150.93
2023-01-15T00:54:07.421Z,135.47
2023-01-15T00:56:34.902Z,119.60
2023-01-15T00:59:02.528Z,96.27
2023-01-15T01:01:30.158Z,121.20
2023-01-15T01:03:57.761Z,126.17
2023-01-15T01:06:25.397Z,137.57
2023-01-15T01:08:54.290Z,117.10
2023-01-15T01:11:23.833Z,149.10
2023-01-15T01:13:51.331Z,132.47
2023-01-15T01:16:26.818Z,129.23
2023-01-15T01:18:54.484Z,114.27
2023-01-15T01:21:22.080Z,136.43
2023-01-15T01:23:49.795Z,150.50
2023-01-15T01:26:18.720Z,133.20
2023-01-15T01:28:49.623Z,115.83
2023-01-15T01:31:17.516Z,151.97
2023-01-15T01:33:45.387Z,146.93
2023-01-15T01:36:12.860Z,137.50
2023-01-15T01:38:40.273Z,108.47
2023-01-15T01:41:07.754Z,142.27
2023-01-15T01:43:50.122Z,151.33
2023-01-15T01:46:19.076Z,144.07
2023-01-15T01:48:46.691Z,119.07
2023-01-15T01:51:14.164Z,149.33
2023-01-15T01:53:41.632Z,165.37
2023-01-15T01:56:09.794Z,159.77
2023-01-15T01:58:37.401Z,145.20
2023-01-15T02:01:05.849Z,138.53
2023-01-15T02:03:36.796Z,126.33
2023-01-15T02:06:07.120Z,149.37
2023-01-15T02:08:35.099Z,155.43
2023-01-15T02:11:02.677Z,124.40
2023-01-15T02:13:33.177Z,139.17
2023-01-15T02:16:04.148Z,146.83
2023-01-15T02:18:35.955Z,157.63
2023-01-15T02:21:08.848Z,140.87
2023-01-15T02:23:51.100Z,154.70
2023-01-15T02:26:28.089Z,163.37
2023-01-15T02:28:58.858Z,127.47
2023-01-15T02:31:28.623Z,126.97
2023-01-15T02:33:58.967Z,137.20
2023-01-15T02:36:28.073Z,146.43
2023-01-15T02:38:57.833Z,116.10
2023-01-15T02:41:26.960Z,137.50
2023-01-15T02:43:55.986Z,133.97
2023-01-15T02:46:27.691Z,112.67
2023-01-15T02:48:56.514Z,102.30
2023-01-15T02:51:25.245Z,120.57
2023-01-15T02:53:54.652Z,105.93
2023-01-15T02:56:24.926Z,71.13
2023-01-15T02:58:54.172Z,105.30
2023-01-15T03:01:26.181Z,120.70
2023-01-15T03:03:57.727Z,131.70
2023-01-15T03:06:28.805Z,135.53
2023-01-15T03:08:56.279Z,129.20
2023-01-15T03:11:23.762Z,145.07
2023-01-15T03:13:52.973Z,129.73
2023-01-15T03:16:38.113Z,101.50
2023-01-15T03:19:12.761Z,135.33
2023-01-15T03:21:42.203Z,149.67
2023-01-15T03:24:11.422Z,134.20
2023-01-15T03:26:39.040Z,114.03
2023-01-15T03:29:07.267Z,107.20
2023-01-15T03:31:35.169Z,106.90
2023-01-15T03:34:02.911Z,128.47
2023-01-15T03:36:31.643Z,121.63
2023-01-15T03:38:59.742Z,126.67
2023-01-15T03:41:30.159Z,109.13
2023-01-15T03:44:03.076Z,96.77
2023-01-15T03:46:36.552Z,111.13
2023-01-15T03:49:10.353Z,113.17
2023-01-15T03:51:41.204Z,115.77
2023-01-15T03:54:12.237Z,73.50
2023-01-15T03:56:43.275Z,112.50
2023-01-15T03:59:13.165Z,95.07
2023-01-15T04:01:41.943Z,94.50
2023-01-15T04:04:10.247Z,103.00
2023-01-15T04:06:39.404Z,131.07
2023-01-15T04:09:09.779Z,128.20
2023-01-15T04:11:37.391Z,127.17
2023-01-15T04:14:05.028Z,110.07
2023-01-15T04:16:33.087Z,96.63
2023-01-15T04:19:00.566Z,93.90
2023-01-15T04:21:28.082Z,109.40
2023-01-15T04:23:55.631Z,129.37
2023-01-15T04:26:24.388Z,121.20
2023-01-15T04:28:51.933Z,86.47
2023-01-15T04:31:19.790Z,82.90
2023-01-15T04:33:47.250Z,108.20
2023-01-15T04:36:14.893Z,121.37
2023-01-15T04:38:42.310Z,134.00
2023-01-15T04:41:28.130Z,115.87
2023-01-15T04:44:09.380Z,104.07
2023-01-15T04:46:37.773Z,99.97
2023-01-15T04:49:05.335Z,96.57
2023-01-15T04:51:32.778Z,107.20
2023-01-15T04:54:02.650Z,86.27
2023-01-15T04:56:30.063Z,69.07
2023-01-15T04:59:00.314Z,109.40
2023-01-15T05:01:27.887Z,91.07
2023-01-15T05:03:55.457Z,128.17
2023-01-15T05:06:22.885Z,124.40
2023-01-15T05:08:50.307Z,125.13
2023-01-15T05:11:17.869Z,105.30
2023-01-15T05:13:45.434Z,115.30
2023-01-15T05:16:15.752Z,129.27
2023-01-15T05:18:43.861Z,89.53
2023-01-15T05:21:15.179Z,104.03
2023-01-15T05:23:42.591Z,66.80
2023-01-15T05:26:10.025Z,66.73
2023-01-15T05:28:37.627Z,77.37
2023-01-15T05:31:09.115Z,93.03
2023-01-15T05:33:38.163Z,98.77
2023-01-15T05:36:06.470Z,73.27
2023-01-15T05:38:33.945Z,64.97
2023-01-15T05:41:04.075Z,97.00
2023-01-15T05:43:31.493Z,58.80
2023-01-15T05:46:02.493Z,36.13
2023-01-15T05:48:29.918Z,68.77
2023-01-15T05:51:02.722Z,85.50
2023-01-15T05:53:30.155Z,46.53
2023-01-15T05:55:57.684Z,50.07
2023-01-15T05:58:25.196Z,45.03
2023-01-15T06:00:52.651Z,36.23
2023-01-15T06:03:20.084Z,55.87
2023-01-15T06:05:51.260Z,68.37
2023-01-15T06:08:20.047Z,50.33
2023-01-15T06:10:47.545Z,64.23
2023-01-15T06:13:15.472Z,64.23
2023-01-15T06:15:43.141Z,66.00
2023-01-15T06:18:10.983Z,22.37
2023-01-15T06:20:38.399Z,42.93
2023-01-15T06:23:06.079Z,64.13
2023-01-15T06:25:36.841Z,74.77
2023-01-15T06:28:04.335Z,69.73
2023-01-15T06:30:31.755Z,50.30
2023-01-15T06:32:59.213Z,35.23
2023-01-15T06:35:26.986Z,50.77
2023-01-15T06:37:54.695Z,55.03
2023-01-15T06:40:23.499Z,44.77
2023-01-15T06:43:09.958Z,57.67
2023-01-15T06:45:55.855Z,43.27
2023-01-15T06:48:23.686Z,51.73
2023-01-15T06:50:51.196Z,74.67
2023-01-15T06:53:18.633Z,17.80
2023-01-15T06:55:46.133Z,27.23
2023-01-15T06:58:15.002Z,68.63
2023-01-15T07:00:45.142Z,54.13
2023-01-15T07:03:14.211Z,68.20
2023-01-15T07:05:41.830Z,57.33
2023-01-15T07:08:09.289Z,48.80
2023-01-15T07:10:37.031Z,52.87
2023-01-15T07:13:04.455Z,68.20
2023-01-15T07:15:34.870Z,60.37
2023-01-15T07:18:02.708Z,40.07
2023-01-15T07:20:30.171Z,24.60
2023-01-15T07:22:57.873Z,57.20
2023-01-15T07:25:25.339Z,58.87
2023-01-15T07:27:52.726Z,66.63
2023-01-15T07:30:20.238Z,48.50
2023-01-15T07:32:49.121Z,42.80
2023-01-15T07:35:16.890Z,50.10
2023-01-15T07:37:44.322Z,31.97
2023-01-15T07:40:12.792Z,46.17
2023-01-15T07:43:12.547Z,65.63
2023-01-15T07:46:03.178Z,55.47
2023-01-15T07:49:04.397Z,50.70
2023-01-15T07:51:31.863Z,38.17
2023-01-15T07:53:59.364Z,47.57
2023-01-15T07:56:27.021Z,51.23
2023-01-15T07:58:54.413Z,35.70
2023-01-15T08:01:21.890Z,36.57
2023-01-15T08:03:50.949Z,27.40
2023-01-15T08:06:18.358Z,32.60
2023-01-15T08:08:45.820Z,43.00
2023-01-15T08:11:45.371Z,62.13
2023-01-15T08:14:30.184Z,76.10
2023-01-15T08:16:57.621Z,39.73
2023-01-15T08:19:26.893Z,39.17
2023-01-15T08:21:54.343Z,25.93
2023-01-15T08:24:21.921Z,17.83
2023-01-15T08:26:49.451Z,30.10
2023-01-15T08:29:17.093Z,38.97
2023-01-15T08:31:44.582Z,47.17
2023-01-15T08:34:12.036Z,23.00
2023-01-15T08:36:40.877Z,41.00
2023-01-15T08:39:08.307Z,23.80
2023-01-15T08:41:36.169Z,32.40
2023-01-15T08:44:03.695Z,29.23
2023-01-15T08:46:31.070Z,41.57
2023-01-15T08:48:58.445Z,36.90
2023-01-15T08:51:25.931Z,47.40
2023-01-15T08:53:54.821Z,39.40
2023-01-15T08:56:22.267Z,24.17
2023-01-15T08:58:49.783Z,47.30
2023-01-15T09:01:17.477Z,54.30
2023-01-15T09:03:45.067Z,65.53
2023-01-15T09:06:13.459Z,72.23
2023-01-15T09:08:41.341Z,68.43
2023-01-15T09:11:12.948Z,82.00
2023-01-15T09:13:41.930Z,57.70
2023-01-15T09:16:10.634Z,70.07
2023-01-15T09:18:39.111Z,71.00
2023-01-15T09:21:06.892Z,53.47
2023-01-15T09:23:34.299Z,65.40
2023-01-15T09:26:02.405Z,62.23
2023-01-15T09:28:31.163Z,62.83
2023-01-15T09:30:58.638Z,54.77
2023-01-15T09:33:26.377Z,71.87
2023-01-15T09:35:53.866Z,65.30
2023-01-15T09:38:22.473Z,62.73
2023-01-15T09:40:51.326Z,61.03
2023-01-15T09:43:38.847Z,61.13
2023-01-15T09:46:14.150Z,70.93
2023-01-15T09:48:47.953Z,76.97
2023-01-15T09:51:19.559Z,47.90
2023-01-15T09:53:50.998Z,80.40
2023-01-15T09:56:22.149Z,45.30
2023-01-15T09:58:50.108Z,64.53
2023-01-15T10:01:20.526Z,64.13
2023-01-15T10:03:50.897Z,58.03
2023-01-15T10:06:22.391Z,49.90
2023-01-15T10:08:50.722Z,42.73
2023-01-15T10:11:46.989Z,47.30
2023-01-15T10:14:16.739Z,60.53
2023-01-15T10:16:45.557Z,50.53
2023-01-15T10:19:12.983Z,68.87
2023-01-15T10:21:47.960Z,34.30
2023-01-15T10:24:18.790Z,47.40
2023-01-15T10:26:51.011Z,67.43
2023-01-15T10:29:20.120Z,28.90
2023-01-15T10:31:52.699Z,24.30
2023-01-15T10:34:33.393Z,21.80
2023-01-15T10:37:04.465Z,12.13
2023-01-15T10:39:35.875Z,30.00
2023-01-15T10:42:08.794Z,8.40
2023-01-15T10:44:41.250Z,5.50
2023-01-15T10:47:13.624Z,7.33
2023-01-15T10:49:42.230Z,3.77
2023-01-15T10:52:16.530Z,4.50
2023-01-15T10:54:47.902Z,2.60
2023-01-15T10:57:18.522Z,2.40
2023-01-15T10:59:48.184Z,5.13
2023-01-15T11:02:22.937Z,2.77
2023-01-15T11:04:50.494Z,3.60
2023-01-15T11:07:18.288Z,6.90
2023-01-15T11:09:45.745Z,3.30
2023-01-15T11:12:37.922Z,6.03
2023-01-15T11:15:28.277Z,5.90
2023-01-15T11:18:14.903Z,3.77
2023-01-15T11:20:44.770Z,2.67
2023-01-15T11:23:13.097Z,2.90
2023-01-15T11:25:48.666Z,4.93
2023-01-15T11:28:17.185Z,5.30
2023-01-15T11:30:53.412Z,2.53
2023-01-15T11:33:24.099Z,2.10
2023-01-15T11:35:52.177Z,1.80
2023-01-15T11:38:23.006Z,1.90
2023-01-15T11:40:54.172Z,3.13
2023-01-15T11:43:39.679Z,1.30
2023-01-15T11:46:24.781Z,2.43
2023-01-15T11:49:11.209Z,1.60
2023-01-15T11:51:41.370Z,1.00
2023-01-15T11:54:11.086Z,1.80
2023-01-15T11:56:41.791Z,1.57
2023-01-15T11:59:11.432Z,1.20
2023-01-15T12:01:43.395Z,4.07
2023-01-15T12:04:24.756Z,2.90
2023-01-15T12:06:52.297Z,2.30
2023-01-15T12:09:25.738Z,4.57
2023-01-15T12:11:57.627Z,2.40
2023-01-15T12:14:32.593Z,1.27
2023-01-15T12:17:03.419Z,3.10
2023-01-15T12:19:37.104Z,2.10
2023-01-15T12:22:14.094Z,1.00
2023-01-15T12:24:59.522Z,2.50
2023-01-15T12:27:39.295Z,1.50
2023-01-15T12:30:15.074Z,2.10
2023-01-15T12:32:44.419Z,2.30
2023-01-15T12:35:16.722Z,0.97
2023-01-15T12:37:45.845Z,3.03
2023-01-15T12:40:19.753Z,2.10
2023-01-15T12:43:06.550Z,2.87
2023-01-15T12:45:35.502Z,4.63
2023-01-15T12:48:06.312Z,4.30
2023-01-15T12:50:39.772Z,1.37
2023-01-15T12:53:11.754Z,1.87
2023-01-15T12:55:42.745Z,2.80
2023-01-15T12:58:13.649Z,1.93
2023-01-15T13:00:42.925Z,1.30
2023-01-15T13:03:16.515Z,1.17
2023-01-15T13:05:47.924Z,3.03
2023-01-15T13:08:19.257Z,3.17
2023-01-15T13:10:46.981Z,1.40
2023-01-15T13:13:16.499Z,2.40
2023-01-15T13:15:51.372Z,3.93
2023-01-15T13:18:22.675Z,1.77
2023-01-15T13:20:52.272Z,6.93
2023-01-15T13:23:28.027Z,4.20
2023-01-15T13:26:08.094Z,1.23
2023-01-15T13:28:41.364Z,5.00
2023-01-15T13:31:14.173Z,1.60
2023-01-15T13:33:44.053Z,1.23
2023-01-15T13:36:15.923Z,2.53
2023-01-15T13:38:45.360Z,1.40
2023-01-15T13:41:38.351Z,2.03
2023-01-15T13:44:05.988Z,1.13
2023-01-15T13:46:33.405Z,0.80
2023-01-15T13:49:00.883Z,0.70
2023-01-15T13:51:31.443Z,0.60
2023-01-15T13:54:00.678Z,1.97
2023-01-15T13:56:28.984Z,1.40
2023-01-15T13:58:57.483Z,1.20
2023-01-15T14:01:26.226Z,3.23
2023-01-15T14:04:00.113Z,4.00
2023-01-15T14:06:38.003Z,2.07
2023-01-15T14:09:06.129Z,1.37
2023-01-15T14:11:36.499Z,1.00
2023-01-15T14:14:24.893Z,2.97
2023-01-15T14:16:56.391Z,2.57
2023-01-15T14:19:30.480Z,1.00
2023-01-15T14:22:03.794Z,1.37
2023-01-15T14:24:46.633Z,1.33
2023-01-15T14:27:17.038Z,1.70
2023-01-15T14:29:51.457Z,0.80
2023-01-15T14:32:24.738Z,1.90
2023-01-15T14:34:56.135Z,1.67
2023-01-15T14:37:27.572Z,2.37
2023-01-15T14:39:58.353Z,1.43
2023-01-15T14:42:45.473Z,1.67
2023-01-15T14:45:19.123Z,2.07
2023-01-15T14:47:48.180Z,1.53
2023-01-15T14:50:26.655Z,3.27
2023-01-15T14:52:56.014Z,2.53
2023-01-15T14:55:23.994Z,1.27
2023-01-15T14:57:56.597Z,2.27
2023-01-15T15:00:25.332Z,0.93
2023-01-15T15:02:52.806Z,1.53
2023-01-15T15:05:21.999Z,0.97
2023-01-15T15:07:52.871Z,5.20
2023-01-15T15:10:24.853Z,1.00
2023-01-15T15:12:55.835Z,2.20
2023-01-15T15:15:28.482Z,1.67
2023-01-15T15:18:00.296Z,3.10
2023-01-15T15:20:34.429Z,1.53
2023-01-15T15:23:05.620Z,1.63
2023-01-15T15:25:39.438Z,2.03
2023-01-15T15:28:07.802Z,2.30
2023-01-15T15:30:36.781Z,4.53
2023-01-15T15:33:05.529Z,2.30
2023-01-15T15:35:33.481Z,2.47
2023-01-15T15:38:03.602Z,3.90
2023-01-15T15:40:32.970Z,3.20
2023-01-15T15:43:22.104Z,0.97
2023-01-15T15:46:10.515Z,2.53
2023-01-15T15:48:45.509Z,1.10
2023-01-15T15:51:24.567Z,0.90
2023-01-15T15:53:51.969Z,4.00
2023-01-15T15:56:19.479Z,2.17
2023-01-15T15:58:48.701Z,1.23
2023-01-15T16:01:16.398Z,2.60
2023-01-15T16:03:47.037Z,2.30
2023-01-15T16:06:20.345Z,1.00
2023-01-15T16:08:52.821Z,2.00
2023-01-15T16:11:21.778Z,1.00
2023-01-15T16:13:51.926Z,0.80
2023-01-15T16:16:20.889Z,1.67
2023-01-15T16:18:49.428Z,1.33
2023-01-15T16:21:18.501Z,1.20
2023-01-15T16:23:56.536Z,0.80
2023-01-15T16:26:29.242Z,1.77
2023-01-15T16:28:59.387Z,0.90
2023-01-15T16:31:28.662Z,1.73
2023-01-15T16:33:57.014Z,3.60
2023-01-15T16:36:24.946Z,1.93
2023-01-15T16:38:52.732Z,3.00
2023-01-15T16:41:21.199Z,2.60
2023-01-15T16:43:53.705Z,2.50
2023-01-15T16:46:23.341Z,1.33
2023-01-15T16:48:50.906Z,1.10
2023-01-15T16:51:29.041Z,1.80
2023-01-15T16:53:56.510Z,0.90
2023-01-15T16:56:28.806Z,3.57
2023-01-15T16:58:56.392Z,0.90
2023-01-15T17:01:36.513Z,3.90
2023-01-15T17:04:04.640Z,2.77
2023-01-15T17:06:33.392Z,3.17
2023-01-15T17:09:00.877Z,1.40
2023-01-15T17:11:30.007Z,1.53
2023-01-15T17:14:15.162Z,1.00
2023-01-15T17:16:43.910Z,0.80
2023-01-15T17:19:11.770Z,1.97
2023-01-15T17:21:40.065Z,2.80
2023-01-15T17:24:08.490Z,4.60
2023-01-15T17:26:36.202Z,2.30
2023-01-15T17:29:04.065Z,3.53
2023-01-15T17:31:32.561Z,1.30
2023-01-15T17:34:02.408Z,3.27
2023-01-15T17:36:30.153Z,2.00
2023-01-15T17:38:57.810Z,1.73
2023-01-15T17:41:25.244Z,3.37
2023-01-15T17:43:52.711Z,2.40
2023-01-15T17:46:20.254Z,1.37
2023-01-15T17:48:47.882Z,2.07
2023-01-15T17:51:16.996Z,1.40
2023-01-15T17:53:44.387Z,2.50
2023-01-15T17:56:29.536Z,1.57
2023-01-15T17:59:14.313Z,1.50
2023-01-15T18:02:00.428Z,2.60
2023-01-15T18:04:47.313Z,2.60
2023-01-15T18:07:20.808Z,2.33
2023-01-15T18:09:50.321Z,2.30
2023-01-15T18:12:17.790Z,2.17
2023-01-15T18:14:45.252Z,2.97
2023-01-15T18:17:12.621Z,1.40
2023-01-15T18:19:40.036Z,1.33
2023-01-15T18:22:07.472Z,3.33
2023-01-15T18:24:36.308Z,3.67
2023-01-15T18:27:03.786Z,1.30
2023-01-15T18:29:31.224Z,1.77
2023-01-15T18:31:58.653Z,2.27
2023-01-15T18:34:26.294Z,2.20
2023-01-15T18:36:53.748Z,3.50
2023-01-15T18:39:21.284Z,1.23
2023-01-15T18:42:07.709Z,1.23
2023-01-15T18:44:52.631Z,2.63
2023-01-15T18:47:20.004Z,1.53
2023-01-15T18:49:47.796Z,3.13
2023-01-15T18:52:34.417Z,2.00
2023-01-15T18:55:02.106Z,2.20
2023-01-15T18:57:32.886Z,2.60
2023-01-15T19:00:00.329Z,1.83
2023-01-15T19:02:27.967Z,2.27
2023-01-15T19:04:55.484Z,2.20
2023-01-15T19:07:22.997Z,2.17
2023-01-15T19:09:50.541Z,2.43
2023-01-15T19:12:19.710Z,3.60
2023-01-15T19:15:06.177Z,2.03
2023-01-15T19:17:51.438Z,2.80
2023-01-15T19:20:20.006Z,1.63
2023-01-15T19:22:59.595Z,2.93
2023-01-15T19:25:27.087Z,1.57
2023-01-15T19:27:55.360Z,2.80
2023-01-15T19:30:24.841Z,2.20
2023-01-15T19:32:52.291Z,1.00
2023-01-15T19:35:19.720Z,1.77
2023-01-15T19:37:47.338Z,1.17
2023-01-15T19:40:16.231Z,1.80
2023-01-15T19:43:01.294Z,3.13
2023-01-15T19:45:47.484Z,2.60
2023-01-15T19:48:33.933Z,1.30
2023-01-15T19:51:02.929Z,1.63
2023-01-15T19:53:30.348Z,3.00
2023-01-15T19:55:57.886Z,1.47
2023-01-15T19:58:25.459Z,2.00
2023-01-15T20:00:54.256Z,3.27
2023-01-15T20:03:21.661Z,1.50
2023-01-15T20:05:49.120Z,2.13
2023-01-15T20:08:17.973Z,2.80
2023-01-15T20:10:46.152Z,2.73
2023-01-15T20:13:31.771Z,3.33
2023-01-15T20:16:06.131Z,6.00
2023-01-15T20:18:33.821Z,2.10
2023-01-15T20:21:01.239Z,2.20
2023-01-15T20:23:28.709Z,3.17
2023-01-15T20:26:01.038Z,1.00
2023-01-15T20:28:28.498Z,1.33
2023-01-15T20:30:56.205Z,1.30
2023-01-15T20:33:25.164Z,3.33
2023-01-15T20:35:54.010Z,1.40
2023-01-15T20:38:22.079Z,3.17
2023-01-15T20:40:51.860Z,3.67
2023-01-15T20:43:37.226Z,3.10
2023-01-15T20:46:08.059Z,1.77
2023-01-15T20:48:54.336Z,1.23
2023-01-15T20:51:21.795Z,3.03
2023-01-15T20:53:51.494Z,2.70
2023-01-15T20:56:19.076Z,2.73
2023-01-15T20:58:46.972Z,2.90
2023-01-15T21:01:14.636Z,2.10
2023-01-15T21:03:43.425Z,1.17
2023-01-15T21:06:10.964Z,1.50
2023-01-15T21:08:39.829Z,3.23
2023-01-15T21:11:07.354Z,1.90
2023-01-15T21:13:34.904Z,1.90
2023-01-15T21:16:03.580Z,3.10
2023-01-15T21:18:32.195Z,2.30
2023-01-15T21:21:00.934Z,3.30
2023-01-15T21:23:28.654Z,3.93
2023-01-15T21:25:59.543Z,1.40
2023-01-15T21:28:27.085Z,3.23
2023-01-15T21:30:54.519Z,3.43
2023-01-15T21:33:22.076Z,3.40
2023-01-15T21:35:49.486Z,2.60
2023-01-15T21:38:18.273Z,3.60
2023-01-15T21:40:45.752Z,3.27
2023-01-15T21:43:30.755Z,3.30
2023-01-15T21:46:04.719Z,3.60
2023-01-15T21:48:32.271Z,1.00
2023-01-15T21:50:59.668Z,1.63
2023-01-15T21:53:28.581Z,3.53
2023-01-15T21:55:55.999Z,2.83
2023-01-15T21:58:23.477Z,2.20
2023-01-15T22:00:50.930Z,2.00
2023-01-15T22:03:18.404Z,1.13
2023-01-15T22:05:46.303Z,1.90
2023-01-15T22:08:13.757Z,2.27
2023-01-15T22:10:42.543Z,2.97
2023-01-15T22:13:10.050Z,3.17
2023-01-15T22:15:37.517Z,2.37
2023-01-15T22:18:05.010Z,3.40
2023-01-15T22:20:32.612Z,4.20
2023-01-15T22:23:00.126Z,2.83
2023-01-15T22:25:27.532Z,1.93
2023-01-15T22:27:57.715Z,4.87
2023-01-15T22:30:25.148Z,3.23
2023-01-15T22:32:52.627Z,5.90
2023-01-15T22:35:20.258Z,3.67
2023-01-15T22:37:48.039Z,5.20
2023-01-15T22:40:15.499Z,2.60
2023-01-15T22:42:43.828Z,2.97
2023-01-15T22:45:12.946Z,3.03
2023-01-15T22:47:40.395Z,5.17
2023-01-15T22:50:08.105Z,3.63
2023-01-15T22:52:35.548Z,1.30
2023-01-15T22:55:03.006Z,2.10
2023-01-15T22:57:31.171Z,1.20
2023-01-15T22:59:58.916Z,2.20
2023-01-15T23:02:41.657Z,3.43
2023-01-15T23:05:09.772Z,2.57
2023-01-15T23:07:37.850Z,1.50
2023-01-15T23:10:06.962Z,4.03
2023-01-15T23:12:34.385Z,3.07
2023-01-15T23:15:02.117Z,1.33
2023-01-15T23:17:30.921Z,2.60
2023-01-15T23:19:58.342Z,2.70
2023-01-15T23:22:25.799Z,2.87
2023-01-15T23:24:53.279Z,1.13
2023-01-15T23:27:20.706Z,4.63
2023-01-15T23:29:48.983Z,4.60
2023-01-15T23:32:16.419Z,2.17
2023-01-15T23:34:45.269Z,1.70
2023-01-15T23:37:12.707Z,3.20
2023-01-15T23:39:40.130Z,0.90
2023-01-15T23:42:24.964Z,0.97
2023-01-15T23:45:09.875Z,2.10
2023-01-15T23:47:37.248Z,1.43
2023-01-15T23:50:06.435Z,1.33
2023-01-15T23:52:33.879Z,4.57
2023-01-15T23:55:01.264Z,0.93
2023-01-15T23:57:28.708Z,0.80
2023-01-15T23:59:56.093Z,1.93
